sensor_id;sensor_type;location;lat;lon;timestamp;P1;durP1;ratioP1;P2;durP2;ratioP2
13611;SDS011;6877;51.436;6.774;2023-04-09T00:01:47;43.38;;;24.42;;
13611;SDS011;6877;51.436;6.774;2023-04-09T00:04:19;46.42;;;22.77;;
13611;SDS011;6877;51.436;6.774;2023-04-09T00:06:52;48.08;;;23.02;;
13611;SDS011;6877;51.436;6.774;2023-04-09T00:09:18;41.50;;;23.67;;
13611;SDS011;6877;51.436;6.774;2023-04-09T00:11:45;42.90;;;23.58;;
13611;SDS011;6877;51.436;6.774;2023-04-09T00:14:12;38.88;;;22.65;;
13611;SDS011;6877;51.436;6.774;2023-04-09T00:16:43;48.40;;;25.25;;
13611;SDS011;6877;51.436;6.774;2023-04-09T00:19:10;46.60;;;23.77;;
13611;SDS011;6877;51.436;6.774;2023-04-09T00:21:42;46.38;;;25.75;;
13611;SDS011;6877;51.436;6.774;2023-04-09T00:24:09;56.92;;;26.85;;
13611;SDS011;6877;51.436;6.774;2023-04-09T00:26:40;46.33;;;26.63;;
13611;SDS011;6877;51.436;6.774;2023-04-09T00:29:12;44.10;;;24.95;;
13611;SDS011;6877;51.436;6.774;2023-04-09T00:31:38;43.30;;;23.98;;
13611;SDS011;6877;51.436;6.774;2023-04-09T00:34:04;50.65;;;25.08;;
13611;SDS011;6877;51.436;6.774;2023-04-09T00:36:37;51.03;;;25.42;;
13611;SDS011;6877;51.436;6.774;2023-04-09T00:39:03;44.92;;;25.95;;
13611;SDS011;6877;51.436;6.774;2023-04-09T00:41:29;44.50;;;24.55;;
13611;SDS011;6877;51.436;6.774;2023-04-09T00:44:01;44.40;;;24.17;;
13611;SDS011;6877;51.436;6.774;2023-04-09T00:46:32;45.33;;;23.65;;
13611;SDS011;6877;51.436;6.774;2023-04-09T00:48:58;46.38;;;25.45;;
13611;SDS011;6877;51.436;6.774;2023-04-09T00:51:30;45.13;;;24.40;;
13611;SDS011;6877;51.436;6.774;2023-04-09T00:53:56;50.72;;;24.65;;
13611;SDS011;6877;51.436;6.774;2023-04-09T00:56:23;45.40;;;24.50;;
13611;SDS011;6877;51.436;6.774;2023-04-09T00:58:50;45.83;;;26.27;;
13611;SDS011;6877;51.436;6.774;2023-04-09T01:01:17;47.42;;;25.42;;
13611;SDS011;6877;51.436;6.774;2023-04-09T01:03:43;44.58;;;22.80;;
13611;SDS011;6877;51.436;6.774;2023-04-09T01:06:32;42.53;;;22.73;;
13611;SDS011;6877;51.436;6.774;2023-04-09T01:12:32;50.25;;;26.67;;
13611;SDS011;6877;51.436;6.774;2023-04-09T01:15:17;47.88;;;24.25;;
13611;SDS011;6877;51.436;6.774;2023-04-09T01:17:56;53.75;;;27.58;;
13611;SDS011;6877;51.436;6.774;2023-04-09T01:23:20;56.22;;;27.65;;
13611;SDS011;6877;51.436;6.774;2023-04-09T01:26:17;54.30;;;27.20;;
13611;SDS011;6877;51.436;6.774;2023-04-09T01:28:55;55.97;;;29.38;;
13611;SDS011;6877;51.436;6.774;2023-04-09T01:31:33;63.13;;;29.95;;
13611;SDS011;6877;51.436;6.774;2023-04-09T01:34:07;54.97;;;29.00;;
13611;SDS011;6877;51.436;6.774;2023-04-09T01:36:35;53.58;;;28.65;;
13611;SDS011;6877;51.436;6.774;2023-04-09T01:39:04;54.85;;;28.38;;
13611;SDS011;6877;51.436;6.774;2023-04-09T01:41:32;56.20;;;29.10;;
13611;SDS011;6877;51.436;6.774;2023-04-09T01:44:01;57.97;;;29.45;;
13611;SDS011;6877;51.436;6.774;2023-04-09T01:46:28;64.50;;;28.83;;
13611;SDS011;6877;51.436;6.774;2023-04-09T01:48:56;61.38;;;29.83;;
13611;SDS011;6877;51.436;6.774;2023-04-09T01:51:22;56.63;;;29.73;;
13611;SDS011;6877;51.436;6.774;2023-04-09T01:53:54;58.08;;;29.13;;
13611;SDS011;6877;51.436;6.774;2023-04-09T01:56:21;52.83;;;29.00;;
13611;SDS011;6877;51.436;6.774;2023-04-09T01:58:48;51.10;;;28.65;;
13611;SDS011;6877;51.436;6.774;2023-04-09T02:01:23;50.88;;;29.75;;
13611;SDS011;6877;51.436;6.774;2023-04-09T02:03:59;57.95;;;28.10;;
13611;SDS011;6877;51.436;6.774;2023-04-09T02:06:37;59.70;;;30.35;;
13611;SDS011;6877;51.436;6.774;2023-04-09T02:09:09;54.65;;;27.85;;
13611;SDS011;6877;51.436;6.774;2023-04-09T02:11:38;52.63;;;28.98;;
13611;SDS011;6877;51.436;6.774;2023-04-09T02:14:12;53.28;;;27.40;;
13611;SDS011;6877;51.436;6.774;2023-04-09T02:16:43;57.10;;;28.40;;
13611;SDS011;6877;51.436;6.774;2023-04-09T02:19:15;69.00;;;31.75;;
13611;SDS011;6877;51.436;6.774;2023-04-09T02:21:47;53.97;;;28.27;;
13611;SDS011;6877;51.436;6.774;2023-04-09T02:24:13;58.55;;;28.77;;
13611;SDS011;6877;51.436;6.774;2023-04-09T02:26:40;61.25;;;32.78;;
13611;SDS011;6877;51.436;6.774;2023-04-09T02:29:06;67.53;;;32.10;;
13611;SDS011;6877;51.436;6.774;2023-04-09T02:31:32;59.33;;;31.08;;
13611;SDS011;6877;51.436;6.774;2023-04-09T02:33:59;63.30;;;31.70;;
13611;SDS011;6877;51.436;6.774;2023-04-09T02:36:25;57.30;;;29.98;;
13611;SDS011;6877;51.436;6.774;2023-04-09T02:38:52;62.75;;;31.55;;
13611;SDS011;6877;51.436;6.774;2023-04-09T02:41:19;64.00;;;34.13;;
13611;SDS011;6877;51.436;6.774;2023-04-09T02:43:46;62.22;;;31.23;;
13611;SDS011;6877;51.436;6.774;2023-04-09T02:46:17;63.83;;;29.90;;
13611;SDS011;6877;51.436;6.774;2023-04-09T02:48:43;60.28;;;30.65;;
13611;SDS011;6877;51.436;6.774;2023-04-09T02:51:15;63.80;;;32.22;;
13611;SDS011;6877;51.436;6.774;2023-04-09T02:53:46;57.05;;;31.58;;
13611;SDS011;6877;51.436;6.774;2023-04-09T02:56:12;66.50;;;31.77;;
13611;SDS011;6877;51.436;6.774;2023-04-09T02:58:44;66.82;;;33.05;;
13611;SDS011;6877;51.436;6.774;2023-04-09T03:01:10;65.03;;;34.15;;
13611;SDS011;6877;51.436;6.774;2023-04-09T03:03:42;63.10;;;31.70;;
13611;SDS011;6877;51.436;6.774;2023-04-09T03:06:08;55.58;;;32.40;;
13611;SDS011;6877;51.436;6.774;2023-04-09T03:08:35;65.55;;;33.83;;
13611;SDS011;6877;51.436;6.774;2023-04-09T03:11:01;64.40;;;32.78;;
13611;SDS011;6877;51.436;6.774;2023-04-09T03:13:28;61.42;;;33.20;;
13611;SDS011;6877;51.436;6.774;2023-04-09T03:15:54;68.10;;;31.13;;
13611;SDS011;6877;51.436;6.774;2023-04-09T03:18:20;69.18;;;33.33;;
13611;SDS011;6877;51.436;6.774;2023-04-09T03:20:52;57.20;;;30.50;;
13611;SDS011;6877;51.436;6.774;2023-04-09T03:23:23;68.50;;;32.90;;
13611;SDS011;6877;51.436;6.774;2023-04-09T03:25:58;64.60;;;30.33;;
13611;SDS011;6877;51.436;6.774;2023-04-09T03:28:31;62.63;;;32.42;;
13611;SDS011;6877;51.436;6.774;2023-04-09T03:30:57;62.58;;;30.92;;
13611;SDS011;6877;51.436;6.774;2023-04-09T03:33:29;66.60;;;32.80;;
13611;SDS011;6877;51.436;6.774;2023-04-09T03:35:55;64.30;;;32.85;;
13611;SDS011;6877;51.436;6.774;2023-04-09T03:38:21;65.72;;;32.95;;
13611;SDS011;6877;51.436;6.774;2023-04-09T03:40:48;70.28;;;33.92;;
13611;SDS011;6877;51.436;6.774;2023-04-09T03:43:14;69.57;;;34.20;;
13611;SDS011;6877;51.436;6.774;2023-04-09T03:45:46;69.63;;;34.80;;
13611;SDS011;6877;51.436;6.774;2023-04-09T03:48:12;73.38;;;36.97;;
13611;SDS011;6877;51.436;6.774;2023-04-09T03:50:39;77.95;;;34.50;;
13611;SDS011;6877;51.436;6.774;2023-04-09T03:53:11;70.15;;;37.28;;
13611;SDS011;6877;51.436;6.774;2023-04-09T03:55:42;67.70;;;34.70;;
13611;SDS011;6877;51.436;6.774;2023-04-09T03:58:09;82.60;;;37.88;;
13611;SDS011;6877;51.436;6.774;2023-04-09T04:00:36;78.03;;;37.00;;
13611;SDS011;6877;51.436;6.774;2023-04-09T04:03:07;65.65;;;34.50;;
13611;SDS011;6877;51.436;6.774;2023-04-09T04:05:33;79.07;;;37.25;;
13611;SDS011;6877;51.436;6.774;2023-04-09T04:08:05;61.92;;;36.35;;
13611;SDS011;6877;51.436;6.774;2023-04-09T04:10:32;77.32;;;37.92;;
13611;SDS011;6877;51.436;6.774;2023-04-09T04:13:07;76.57;;;36.30;;
13611;SDS011;6877;51.436;6.774;2023-04-09T04:15:41;78.05;;;37.33;;
13611;SDS011;6877;51.436;6.774;2023-04-09T04:18:13;68.25;;;33.60;;
13611;SDS011;6877;51.436;6.774;2023-04-09T04:20:39;66.75;;;35.75;;
13611;SDS011;6877;51.436;6.774;2023-04-09T04:23:06;74.03;;;34.97;;
13611;SDS011;6877;51.436;6.774;2023-04-09T04:25:32;69.85;;;35.72;;
13611;SDS011;6877;51.436;6.774;2023-04-09T04:27:58;67.18;;;35.05;;
13611;SDS011;6877;51.436;6.774;2023-04-09T04:30:25;72.10;;;37.40;;
13611;SDS011;6877;51.436;6.774;2023-04-09T04:32:51;71.60;;;34.22;;
13611;SDS011;6877;51.436;6.774;2023-04-09T04:35:17;76.53;;;38.05;;
13611;SDS011;6877;51.436;6.774;2023-04-09T04:37:44;77.00;;;40.53;;
13611;SDS011;6877;51.436;6.774;2023-04-09T04:40:16;75.80;;;39.03;;
13611;SDS011;6877;51.436;6.774;2023-04-09T04:42:42;89.07;;;40.25;;
13611;SDS011;6877;51.436;6.774;2023-04-09T04:45:09;71.78;;;37.35;;
13611;SDS011;6877;51.436;6.774;2023-04-09T04:47:35;81.47;;;37.90;;
13611;SDS011;6877;51.436;6.774;2023-04-09T04:50:07;77.40;;;35.95;;
13611;SDS011;6877;51.436;6.774;2023-04-09T04:52:34;63.53;;;32.60;;
13611;SDS011;6877;51.436;6.774;2023-04-09T04:55:01;81.65;;;38.53;;
13611;SDS011;6877;51.436;6.774;2023-04-09T04:57:32;80.13;;;38.15;;
13611;SDS011;6877;51.436;6.774;2023-04-09T04:59:59;71.78;;;37.60;;
13611;SDS011;6877;51.436;6.774;2023-04-09T05:02:30;82.13;;;38.97;;
13611;SDS011;6877;51.436;6.774;2023-04-09T05:04:56;67.47;;;35.13;;
13611;SDS011;6877;51.436;6.774;2023-04-09T05:07:28;70.80;;;35.60;;
13611;SDS011;6877;51.436;6.774;2023-04-09T05:09:54;78.07;;;34.97;;
13611;SDS011;6877;51.436;6.774;2023-04-09T05:12:20;73.95;;;36.85;;
13611;SDS011;6877;51.436;6.774;2023-04-09T05:14:47;77.55;;;36.55;;
13611;SDS011;6877;51.436;6.774;2023-04-09T05:17:18;80.63;;;37.70;;
13611;SDS011;6877;51.436;6.774;2023-04-09T05:19:52;74.82;;;38.75;;
13611;SDS011;6877;51.436;6.774;2023-04-09T05:22:19;82.88;;;37.08;;
13611;SDS011;6877;51.436;6.774;2023-04-09T05:24:46;75.53;;;37.80;;
13611;SDS011;6877;51.436;6.774;2023-04-09T05:27:17;75.45;;;40.45;;
13611;SDS011;6877;51.436;6.774;2023-04-09T05:29:44;77.03;;;38.28;;
13611;SDS011;6877;51.436;6.774;2023-04-09T05:32:10;90.72;;;40.85;;
13611;SDS011;6877;51.436;6.774;2023-04-09T05:34:42;78.78;;;40.25;;
13611;SDS011;6877;51.436;6.774;2023-04-09T05:37:08;73.38;;;39.00;;
13611;SDS011;6877;51.436;6.774;2023-04-09T05:39:39;77.25;;;39.40;;
13611;SDS011;6877;51.436;6.774;2023-04-09T05:42:11;80.22;;;38.15;;
13611;SDS011;6877;51.436;6.774;2023-04-09T05:44:42;83.18;;;38.22;;
13611;SDS011;6877;51.436;6.774;2023-04-09T05:47:14;80.70;;;40.45;;
13611;SDS011;6877;51.436;6.774;2023-04-09T05:49:40;77.05;;;39.42;;
13611;SDS011;6877;51.436;6.774;2023-04-09T05:52:06;80.25;;;40.17;;
13611;SDS011;6877;51.436;6.774;2023-04-09T05:54:38;71.78;;;37.55;;
13611;SDS011;6877;51.436;6.774;2023-04-09T05:57:09;83.97;;;37.90;;
13611;SDS011;6877;51.436;6.774;2023-04-09T05:59:35;79.75;;;38.70;;
13611;SDS011;6877;51.436;6.774;2023-04-09T06:02:07;70.22;;;37.05;;
13611;SDS011;6877;51.436;6.774;2023-04-09T06:04:33;91.85;;;41.08;;
13611;SDS011;6877;51.436;6.774;2023-04-09T06:06:59;70.75;;;37.13;;
13611;SDS011;6877;51.436;6.774;2023-04-09T06:09:31;65.68;;;35.00;;
13611;SDS011;6877;51.436;6.774;2023-04-09T06:11:58;72.63;;;35.58;;
13611;SDS011;6877;51.436;6.774;2023-04-09T06:14:24;68.10;;;36.92;;
13611;SDS011;6877;51.436;6.774;2023-04-09T06:16:50;76.15;;;36.05;;
13611;SDS011;6877;51.436;6.774;2023-04-09T06:19:17;69.78;;;36.00;;
13611;SDS011;6877;51.436;6.774;2023-04-09T06:21:49;58.92;;;35.22;;
13611;SDS011;6877;51.436;6.774;2023-04-09T06:24:15;65.45;;;35.03;;
13611;SDS011;6877;51.436;6.774;2023-04-09T06:26:41;61.53;;;33.80;;
13611;SDS011;6877;51.436;6.774;2023-04-09T06:29:13;65.13;;;32.30;;
13611;SDS011;6877;51.436;6.774;2023-04-09T06:31:40;60.25;;;30.50;;
13611;SDS011;6877;51.436;6.774;2023-04-09T06:34:06;55.53;;;31.58;;
13611;SDS011;6877;51.436;6.774;2023-04-09T06:36:36;52.58;;;30.77;;
13611;SDS011;6877;51.436;6.774;2023-04-09T06:39:07;49.03;;;28.00;;
13611;SDS011;6877;51.436;6.774;2023-04-09T06:41:39;46.92;;;27.45;;
13611;SDS011;6877;51.436;6.774;2023-04-09T06:44:05;48.20;;;26.77;;
13611;SDS011;6877;51.436;6.774;2023-04-09T06:46:39;49.40;;;26.92;;
13611;SDS011;6877;51.436;6.774;2023-04-09T06:49:11;40.97;;;24.80;;
13611;SDS011;6877;51.436;6.774;2023-04-09T06:51:37;46.97;;;25.40;;
13611;SDS011;6877;51.436;6.774;2023-04-09T06:54:09;42.85;;;23.50;;
13611;SDS011;6877;51.436;6.774;2023-04-09T06:56:40;43.13;;;25.42;;
13611;SDS011;6877;51.436;6.774;2023-04-09T06:59:09;35.88;;;22.17;;
13611;SDS011;6877;51.436;6.774;2023-04-09T07:01:41;38.85;;;21.35;;
13611;SDS011;6877;51.436;6.774;2023-04-09T07:04:08;39.92;;;22.88;;
13611;SDS011;6877;51.436;6.774;2023-04-09T07:06:34;35.47;;;23.02;;
13611;SDS011;6877;51.436;6.774;2023-04-09T07:09:06;35.90;;;22.98;;
13611;SDS011;6877;51.436;6.774;2023-04-09T07:11:32;35.60;;;21.45;;
13611;SDS011;6877;51.436;6.774;2023-04-09T07:14:04;36.13;;;21.48;;
13611;SDS011;6877;51.436;6.774;2023-04-09T07:16:30;34.30;;;22.08;;
13611;SDS011;6877;51.436;6.774;2023-04-09T07:18:57;37.65;;;23.27;;
13611;SDS011;6877;51.436;6.774;2023-04-09T07:21:23;35.65;;;20.50;;
13611;SDS011;6877;51.436;6.774;2023-04-09T07:23:54;33.28;;;20.27;;
13611;SDS011;6877;51.436;6.774;2023-04-09T07:26:21;33.00;;;20.40;;
13611;SDS011;6877;51.436;6.774;2023-04-09T07:28:48;33.47;;;21.55;;
13611;SDS011;6877;51.436;6.774;2023-04-09T07:31:19;32.03;;;19.67;;
13611;SDS011;6877;51.436;6.774;2023-04-09T07:33:50;34.03;;;20.08;;
13611;SDS011;6877;51.436;6.774;2023-04-09T07:36:22;30.88;;;20.80;;
13611;SDS011;6877;51.436;6.774;2023-04-09T07:38:53;32.65;;;18.92;;
13611;SDS011;6877;51.436;6.774;2023-04-09T07:41:19;27.75;;;18.38;;
13611;SDS011;6877;51.436;6.774;2023-04-09T07:43:46;27.52;;;18.73;;
13611;SDS011;6877;51.436;6.774;2023-04-09T07:46:19;26.92;;;17.23;;
13611;SDS011;6877;51.436;6.774;2023-04-09T07:48:48;26.75;;;17.27;;
13611;SDS011;6877;51.436;6.774;2023-04-09T07:51:15;27.20;;;17.15;;
13611;SDS011;6877;51.436;6.774;2023-04-09T07:53:41;28.02;;;15.85;;
13611;SDS011;6877;51.436;6.774;2023-04-09T07:56:07;26.00;;;17.00;;
13611;SDS011;6877;51.436;6.774;2023-04-09T07:58:35;21.40;;;14.80;;
13611;SDS011;6877;51.436;6.774;2023-04-09T08:01:05;21.50;;;13.80;;
13611;SDS011;6877;51.436;6.774;2023-04-09T08:03:34;20.35;;;13.27;;
13611;SDS011;6877;51.436;6.774;2023-04-09T08:06:01;23.85;;;13.68;;
13611;SDS011;6877;51.436;6.774;2023-04-09T08:08:28;18.40;;;13.02;;
13611;SDS011;6877;51.436;6.774;2023-04-09T08:11:00;17.50;;;11.38;;
13611;SDS011;6877;51.436;6.774;2023-04-09T08:13:27;14.63;;;10.10;;
13611;SDS011;6877;51.436;6.774;2023-04-09T08:15:53;12.98;;;8.88;;
13611;SDS011;6877;51.436;6.774;2023-04-09T08:18:20;10.82;;;8.00;;
13611;SDS011;6877;51.436;6.774;2023-04-09T08:20:46;13.52;;;8.85;;
13611;SDS011;6877;51.436;6.774;2023-04-09T08:23:18;11.18;;;8.23;;
13611;SDS011;6877;51.436;6.774;2023-04-09T08:25:44;10.73;;;7.53;;
13611;SDS011;6877;51.436;6.774;2023-04-09T08:28:11;9.02;;;6.78;;
13611;SDS011;6877;51.436;6.774;2023-04-09T08:30:42;9.55;;;6.85;;
13611;SDS011;6877;51.436;6.774;2023-04-09T08:33:09;8.27;;;5.90;;
13611;SDS011;6877;51.436;6.774;2023-04-09T08:35:41;10.23;;;6.45;;
13611;SDS011;6877;51.436;6.774;2023-04-09T08:38:12;8.68;;;6.25;;
13611;SDS011;6877;51.436;6.774;2023-04-09T08:40:45;9.82;;;6.93;;
13611;SDS011;6877;51.436;6.774;2023-04-09T08:43:13;7.70;;;6.32;;
13611;SDS011;6877;51.436;6.774;2023-04-09T08:45:43;8.77;;;6.10;;
13611;SDS011;6877;51.436;6.774;2023-04-09T08:48:15;8.18;;;6.40;;
13611;SDS011;6877;51.436;6.774;2023-04-09T08:50:41;8.20;;;5.63;;
13611;SDS011;6877;51.436;6.774;2023-04-09T08:53:14;7.63;;;5.63;;
13611;SDS011;6877;51.436;6.774;2023-04-09T08:55:45;8.20;;;6.05;;
13611;SDS011;6877;51.436;6.774;2023-04-09T08:58:12;8.30;;;4.97;;
13611;SDS011;6877;51.436;6.774;2023-04-09T09:00:38;7.40;;;5.43;;
13611;SDS011;6877;51.436;6.774;2023-04-09T09:03:10;6.85;;;5.28;;
13611;SDS011;6877;51.436;6.774;2023-04-09T09:05:45;7.85;;;5.07;;
13611;SDS011;6877;51.436;6.774;2023-04-09T09:08:23;6.22;;;4.85;;
13611;SDS011;6877;51.436;6.774;2023-04-09T09:10:51;5.78;;;4.43;;
13611;SDS011;6877;51.436;6.774;2023-04-09T09:15:49;6.50;;;4.90;;
13611;SDS011;6877;51.436;6.774;2023-04-09T09:18:38;6.13;;;4.90;;
13611;SDS011;6877;51.436;6.774;2023-04-09T09:21:13;6.70;;;4.63;;
13611;SDS011;6877;51.436;6.774;2023-04-09T09:23:40;5.82;;;4.80;;
13611;SDS011;6877;51.436;6.774;2023-04-09T09:28:44;6.20;;;5.10;;
13611;SDS011;6877;51.436;6.774;2023-04-09T09:31:19;6.75;;;5.35;;
13611;SDS011;6877;51.436;6.774;2023-04-09T09:33:46;7.40;;;5.13;;
13611;SDS011;6877;51.436;6.774;2023-04-09T09:36:33;5.28;;;4.55;;
13611;SDS011;6877;51.436;6.774;2023-04-09T09:39:00;7.60;;;4.82;;
13611;SDS011;6877;51.436;6.774;2023-04-09T09:41:39;5.65;;;4.88;;
13611;SDS011;6877;51.436;6.774;2023-04-09T09:44:12;7.68;;;5.00;;
13611;SDS011;6877;51.436;6.774;2023-04-09T09:47:02;6.60;;;4.97;;
13611;SDS011;6877;51.436;6.774;2023-04-09T09:49:34;5.50;;;3.65;;
13611;SDS011;6877;51.436;6.774;2023-04-09T09:52:07;6.13;;;4.15;;
13611;SDS011;6877;51.436;6.774;2023-04-09T09:54:40;6.40;;;4.88;;
13611;SDS011;6877;51.436;6.774;2023-04-09T09:57:13;6.97;;;4.70;;
13611;SDS011;6877;51.436;6.774;2023-04-09T09:59:59;6.03;;;4.43;;
13611;SDS011;6877;51.436;6.774;2023-04-09T10:02:27;5.85;;;4.50;;
13611;SDS011;6877;51.436;6.774;2023-04-09T10:05:05;6.05;;;4.80;;
13611;SDS011;6877;51.436;6.774;2023-04-09T10:07:38;7.47;;;5.15;;
13611;SDS011;6877;51.436;6.774;2023-04-09T10:10:11;7.60;;;5.30;;
13611;SDS011;6877;51.436;6.774;2023-04-09T10:12:37;8.52;;;5.78;;
13611;SDS011;6877;51.436;6.774;2023-04-09T10:15:07;6.53;;;4.80;;
13611;SDS011;6877;51.436;6.774;2023-04-09T10:17:34;7.97;;;5.40;;
13611;SDS011;6877;51.436;6.774;2023-04-09T10:20:18;6.10;;;4.80;;
13611;SDS011;6877;51.436;6.774;2023-04-09T10:22:51;6.28;;;4.57;;
13611;SDS011;6877;51.436;6.774;2023-04-09T10:25:18;10.68;;;5.10;;
13611;SDS011;6877;51.436;6.774;2023-04-09T10:28:00;7.22;;;5.28;;
13611;SDS011;6877;51.436;6.774;2023-04-09T10:30:34;7.38;;;5.43;;
13611;SDS011;6877;51.436;6.774;2023-04-09T10:33:15;7.85;;;5.32;;
13611;SDS011;6877;51.436;6.774;2023-04-09T10:35:47;8.05;;;4.53;;
13611;SDS011;6877;51.436;6.774;2023-04-09T10:38:14;5.82;;;4.55;;
13611;SDS011;6877;51.436;6.774;2023-04-09T10:40:41;5.68;;;4.22;;
13611;SDS011;6877;51.436;6.774;2023-04-09T10:43:12;6.63;;;4.75;;
13611;SDS011;6877;51.436;6.774;2023-04-09T10:45:44;6.45;;;4.88;;
13611;SDS011;6877;51.436;6.774;2023-04-09T10:48:18;13.40;;;5.47;;
13611;SDS011;6877;51.436;6.774;2023-04-09T10:50:50;7.63;;;5.57;;
13611;SDS011;6877;51.436;6.774;2023-04-09T10:53:21;6.50;;;4.55;;
13611;SDS011;6877;51.436;6.774;2023-04-09T10:55:53;5.90;;;4.70;;
13611;SDS011;6877;51.436;6.774;2023-04-09T10:58:25;7.25;;;4.95;;
13611;SDS011;6877;51.436;6.774;2023-04-09T11:00:52;6.60;;;5.30;;
13611;SDS011;6877;51.436;6.774;2023-04-09T11:03:28;8.57;;;5.07;;
13611;SDS011;6877;51.436;6.774;2023-04-09T11:06:03;6.30;;;4.70;;
13611;SDS011;6877;51.436;6.774;2023-04-09T11:08:34;6.03;;;4.32;;
13611;SDS011;6877;51.436;6.774;2023-04-09T11:11:01;7.55;;;4.85;;
13611;SDS011;6877;51.436;6.774;2023-04-09T11:13:33;7.97;;;5.28;;
13611;SDS011;6877;51.436;6.774;2023-04-09T11:16:04;9.77;;;5.35;;
13611;SDS011;6877;51.436;6.774;2023-04-09T11:18:31;7.43;;;5.20;;
13611;SDS011;6877;51.436;6.774;2023-04-09T11:21:00;8.20;;;5.95;;
13611;SDS011;6877;51.436;6.774;2023-04-09T11:23:36;7.57;;;5.40;;
13611;SDS011;6877;51.436;6.774;2023-04-09T11:26:04;7.43;;;5.45;;
13611;SDS011;6877;51.436;6.774;2023-04-09T11:28:36;6.78;;;5.00;;
13611;SDS011;6877;51.436;6.774;2023-04-09T11:31:12;7.15;;;5.00;;
13611;SDS011;6877;51.436;6.774;2023-04-09T11:33:38;6.90;;;5.13;;
13611;SDS011;6877;51.436;6.774;2023-04-09T11:36:05;7.32;;;4.88;;
13611;SDS011;6877;51.436;6.774;2023-04-09T11:38:39;7.30;;;5.43;;
13611;SDS011;6877;51.436;6.774;2023-04-09T11:41:11;8.85;;;5.88;;
13611;SDS011;6877;51.436;6.774;2023-04-09T11:43:38;9.65;;;5.75;;
13611;SDS011;6877;51.436;6.774;2023-04-09T11:46:04;9.10;;;5.55;;
13611;SDS011;6877;51.436;6.774;2023-04-09T11:48:33;8.15;;;5.85;;
13611;SDS011;6877;51.436;6.774;2023-04-09T11:51:00;9.48;;;5.65;;
13611;SDS011;6877;51.436;6.774;2023-04-09T11:53:29;8.32;;;5.82;;
13611;SDS011;6877;51.436;6.774;2023-04-09T11:56:01;8.45;;;5.45;;
13611;SDS011;6877;51.436;6.774;2023-04-09T11:58:32;8.82;;;5.85;;
13611;SDS011;6877;51.436;6.774;2023-04-09T12:01:05;10.38;;;6.03;;
13611;SDS011;6877;51.436;6.774;2023-04-09T12:03:36;9.88;;;6.40;;
13611;SDS011;6877;51.436;6.774;2023-04-09T12:06:06;10.48;;;6.38;;
13611;SDS011;6877;51.436;6.774;2023-04-09T12:08:39;9.85;;;5.65;;
13611;SDS011;6877;51.436;6.774;2023-04-09T12:11:10;9.88;;;5.78;;
13611;SDS011;6877;51.436;6.774;2023-04-09T12:13:37;9.82;;;5.82;;
13611;SDS011;6877;51.436;6.774;2023-04-09T12:16:13;8.95;;;5.85;;
13611;SDS011;6877;51.436;6.774;2023-04-09T12:18:39;7.18;;;5.18;;
13611;SDS011;6877;51.436;6.774;2023-04-09T12:21:11;8.10;;;5.72;;
13611;SDS011;6877;51.436;6.774;2023-04-09T12:23:42;8.98;;;5.70;;
13611;SDS011;6877;51.436;6.774;2023-04-09T12:26:09;7.95;;;5.63;;
13611;SDS011;6877;51.436;6.774;2023-04-09T12:28:35;9.88;;;6.57;;
13611;SDS011;6877;51.436;6.774;2023-04-09T12:31:02;7.78;;;5.40;;
13611;SDS011;6877;51.436;6.774;2023-04-09T12:33:28;10.40;;;6.35;;
13611;SDS011;6877;51.436;6.774;2023-04-09T12:35:59;8.60;;;5.90;;
13611;SDS011;6877;51.436;6.774;2023-04-09T12:38:26;9.88;;;6.55;;
13611;SDS011;6877;51.436;6.774;2023-04-09T12:40:57;10.85;;;6.07;;
13611;SDS011;6877;51.436;6.774;2023-04-09T12:43:29;9.20;;;6.05;;
13611;SDS011;6877;51.436;6.774;2023-04-09T12:46:00;9.93;;;6.35;;
13611;SDS011;6877;51.436;6.774;2023-04-09T12:48:27;9.40;;;6.18;;
13611;SDS011;6877;51.436;6.774;2023-04-09T12:50:58;11.32;;;7.03;;
13611;SDS011;6877;51.436;6.774;2023-04-09T12:53:29;10.85;;;7.72;;
13611;SDS011;6877;51.436;6.774;2023-04-09T12:56:01;14.93;;;5.80;;
13611;SDS011;6877;51.436;6.774;2023-04-09T12:58:27;10.25;;;6.05;;
13611;SDS011;6877;51.436;6.774;2023-04-09T13:00:54;9.65;;;6.43;;
13611;SDS011;6877;51.436;6.774;2023-04-09T13:03:26;7.78;;;5.65;;
13611;SDS011;6877;51.436;6.774;2023-04-09T13:05:58;8.95;;;6.35;;
13611;SDS011;6877;51.436;6.774;2023-04-09T13:08:25;10.55;;;6.38;;
13611;SDS011;6877;51.436;6.774;2023-04-09T13:10:51;9.90;;;6.32;;
13611;SDS011;6877;51.436;6.774;2023-04-09T13:13:18;9.25;;;5.95;;
13611;SDS011;6877;51.436;6.774;2023-04-09T13:15:49;10.10;;;6.18;;
13611;SDS011;6877;51.436;6.774;2023-04-09T13:18:21;10.00;;;6.68;;
13611;SDS011;6877;51.436;6.774;2023-04-09T13:20:47;10.27;;;6.55;;
13611;SDS011;6877;51.436;6.774;2023-04-09T13:23:18;10.20;;;5.85;;
13611;SDS011;6877;51.436;6.774;2023-04-09T13:25:50;9.75;;;5.93;;
13611;SDS011;6877;51.436;6.774;2023-04-09T13:28:21;9.32;;;5.93;;
13611;SDS011;6877;51.436;6.774;2023-04-09T13:30:52;11.15;;;7.00;;
13611;SDS011;6877;51.436;6.774;2023-04-09T13:33:19;8.82;;;5.82;;
13611;SDS011;6877;51.436;6.774;2023-04-09T13:35:50;7.88;;;5.35;;
13611;SDS011;6877;51.436;6.774;2023-04-09T13:38:21;8.77;;;6.30;;
13611;SDS011;6877;51.436;6.774;2023-04-09T13:40:53;8.30;;;5.40;;
13611;SDS011;6877;51.436;6.774;2023-04-09T13:43:19;11.35;;;6.53;;
13611;SDS011;6877;51.436;6.774;2023-04-09T13:45:51;12.20;;;7.47;;
13611;SDS011;6877;51.436;6.774;2023-04-09T13:48:23;9.30;;;5.97;;
13611;SDS011;6877;51.436;6.774;2023-04-09T13:50:55;8.45;;;6.28;;
13611;SDS011;6877;51.436;6.774;2023-04-09T13:53:26;9.23;;;6.18;;
13611;SDS011;6877;51.436;6.774;2023-04-09T13:55:53;10.23;;;6.88;;
13611;SDS011;6877;51.436;6.774;2023-04-09T13:58:19;9.57;;;6.00;;
13611;SDS011;6877;51.436;6.774;2023-04-09T14:00:52;9.25;;;5.55;;
13611;SDS011;6877;51.436;6.774;2023-04-09T14:03:23;8.38;;;6.28;;
13611;SDS011;6877;51.436;6.774;2023-04-09T14:05:50;10.02;;;6.45;;
13611;SDS011;6877;51.436;6.774;2023-04-09T14:08:21;8.30;;;5.85;;
13611;SDS011;6877;51.436;6.774;2023-04-09T14:10:53;8.90;;;5.43;;
13611;SDS011;6877;51.436;6.774;2023-04-09T14:13:24;10.45;;;6.40;;
13611;SDS011;6877;51.436;6.774;2023-04-09T14:15:50;7.28;;;4.93;;
13611;SDS011;6877;51.436;6.774;2023-04-09T14:18:22;9.15;;;5.90;;
13611;SDS011;6877;51.436;6.774;2023-04-09T14:20:48;9.05;;;5.93;;
13611;SDS011;6877;51.436;6.774;2023-04-09T14:23:15;10.15;;;6.65;;
13611;SDS011;6877;51.436;6.774;2023-04-09T14:25:46;9.07;;;5.95;;
13611;SDS011;6877;51.436;6.774;2023-04-09T14:28:12;10.38;;;6.88;;
13611;SDS011;6877;51.436;6.774;2023-04-09T14:30:44;9.88;;;6.28;;
13611;SDS011;6877;51.436;6.774;2023-04-09T14:33:15;9.77;;;6.93;;
13611;SDS011;6877;51.436;6.774;2023-04-09T14:35:47;9.13;;;6.25;;
13611;SDS011;6877;51.436;6.774;2023-04-09T14:38:13;9.57;;;5.78;;
13611;SDS011;6877;51.436;6.774;2023-04-09T14:40:44;12.27;;;6.78;;
13611;SDS011;6877;51.436;6.774;2023-04-09T14:43:16;8.20;;;5.57;;
13611;SDS011;6877;51.436;6.774;2023-04-09T14:45:43;8.50;;;5.70;;
13611;SDS011;6877;51.436;6.774;2023-04-09T14:48:09;9.18;;;5.90;;
13611;SDS011;6877;51.436;6.774;2023-04-09T14:50:40;8.23;;;5.88;;
13611;SDS011;6877;51.436;6.774;2023-04-09T14:53:13;9.60;;;6.25;;
13611;SDS011;6877;51.436;6.774;2023-04-09T14:55:39;10.60;;;5.65;;
13611;SDS011;6877;51.436;6.774;2023-04-09T14:58:05;8.73;;;5.57;;
13611;SDS011;6877;51.436;6.774;2023-04-09T15:00:38;7.90;;;5.35;;
13611;SDS011;6877;51.436;6.774;2023-04-09T15:03:04;9.23;;;5.80;;
13611;SDS011;6877;51.436;6.774;2023-04-09T15:05:36;10.32;;;5.10;;
13611;SDS011;6877;51.436;6.774;2023-04-09T15:08:07;7.00;;;5.15;;
13611;SDS011;6877;51.436;6.774;2023-04-09T15:10:38;8.27;;;5.72;;
13611;SDS011;6877;51.436;6.774;2023-04-09T15:13:05;8.48;;;5.50;;